This is the latest recevied weather packets stored in our database for station/object AG1T-20. If no packets are shown the sender has not sent any weather packets the latest 10 day(s).
| Time | Temp. | Humidity | Pressure | Rain* | Wind** | Luminosity | Snow |
|---|---|---|---|---|---|---|---|
| 1777474205 | 5° C | 69% | 1022.9 hPa | 0 mm | - | 675 W/m² | - |
| 1777473605 | 5° C | 72% | 1022.9 hPa | 0 mm | - | 642 W/m² | - |
| 1777473005 | 3.89° C | 76% | 1022.9 hPa | 0 mm | - | 608 W/m² | - |
| 1777472405 | 3.89° C | 74% | 1022.9 hPa | 0 mm | - | 569 W/m² | - |
| 1777471805 | 3.89° C | 74% | 1022.9 hPa | 0 mm | - | 533 W/m² | - |
| 1777471205 | 3.89° C | 72% | 1022.9 hPa | 0 mm | - | 494 W/m² | - |
| 1777470605 | 3.89° C | 73% | 1022.8 hPa | 0 mm | - | 447 W/m² | - |
| 1777470005 | 2.78° C | 77% | 1022.8 hPa | 0 mm | - | 408 W/m² | - |
| 1777469405 | 2.22° C | 84% | 1022.8 hPa | 0 mm | - | 344 W/m² | - |
| 1777468805 | 0.56° C | 86% | 1022.8 hPa | 0 mm | - | 283 W/m² | - |
| 1777468205 | 0° C | 87% | 1022.8 hPa | 0 mm | - | 44 W/m² | - |
| 1777467605 | 0° C | 87% | 1022.8 hPa | 0 mm | - | 29 W/m² | - |
| 1777467006 | 0° C | 87% | 1022.4 hPa | 0 mm | - | 20 W/m² | - |
| 1777466405 | 0° C | 86% | 1022.4 hPa | 0 mm | - | 13 W/m² | - |
| 1777465805 | -0.56° C | 87% | 1022.4 hPa | 0 mm | - | 7 W/m² | - |
| 1777465205 | -1.11° C | 90% | 1022.4 hPa | 0 mm | - | 2 W/m² | - |
| 1777464605 | -1.11° C | 91% | 1022.4 hPa | 0 mm | - | 0 W/m² | - |
| 1777464005 | -1.11° C | 91% | 1022.4 hPa | 0 mm | - | 0 W/m² | - |
| 1777463405 | -1.11° C | 91% | 1022.1 hPa | 0 mm | - | 0 W/m² | - |
| 1777462805 | -0.56° C | 91% | 1022.1 hPa | 0 mm | - | 0 W/m² | - |
| 1777462205 | -0.56° C | 92% | 1022.1 hPa | 0 mm | - | 0 W/m² | - |
| 1777461605 | -1.11° C | 91% | 1022.1 hPa | 0 mm | - | 0 W/m² | - |
| 1777461005 | -1.11° C | 90% | 1022.1 hPa | 0 mm | - | 0 W/m² | - |
| 1777460406 | -0.56° C | 89% | 1022.1 hPa | 0 mm | - | 0 W/m² | - |
| 1777459805 | 0° C | 88% | 1022.1 hPa | 0 mm | - | 0 W/m² | - |
* Rain latest hour (hover to see other rain measurements)
** Current wind speed in m/s (hover to see current wind gust speed)